Data for 04/19/2017

Time Sea-Level Adjusted Pressure Absolute Pressure Temperature Relative Humidity Dew Point   
(mb) (inHg) (mb) (inHg) (C) (F) (%) (C) (F)
00:05 1017 30.03 847 25.01 5.1 41.2 83 2.4 36.3
00:10 1017 30.03 847 25.01 4.8 40.6 84 2.4 36.2
00:15 1017 30.03 847 25.01 4.1 39.4 84 1.7 35.1
00:20 1017 30.03 847 25.01 3.3 37.9 87 1.4 34.4
00:25 1018 30.06 847 25.01 3 37.4 88 1.3 34.3
00:30 1018 30.06 847 25.01 2.9 37.3 89 1.2 34.2
00:35 1018 30.06 847 25.01 2.7 36.9 89 1.1 34
00:40 1018 30.06 847 25.01 2.6 36.6 88 0.8 33.5
00:45 1018 30.06 847 25.01 2.3 36.2 89 0.7 33.3
00:50 1018 30.06 847 25.01 2.3 36.2 90 0.8 33.4
00:55 1018 30.06 847 25.01 2.4 36.3 89 0.8 33.5
01:00 1018 30.06 848 25.04 2.5 36.4 88 0.7 33.3
01:05 1018 30.06 848 25.04 2.4 36.3 88 0.7 33.2
01:10 1018 30.06 848 25.04 2.4 36.3 88 0.6 33.2
01:15 1018 30.06 848 25.04 2.4 36.3 88 0.6 33
01:20 1018 30.06 848 25.04 2.4 36.3 87 0.5 32.9
01:25 1018 30.06 848 25.04 2.4 36.3 88 0.5 33
01:30 1018 30.06 848 25.04 2.4 36.3 87 0.5 32.9
01:35 1018 30.06 848 25.04 2.4 36.3 88 0.5 32.9
01:40 1018 30.06 848 25.04 2.5 36.4 88 0.6 33.1
01:45 1018 30.06 847 25.01 2.6 36.7 88 0.8 33.4
01:50 1018 30.06 847 25.01 2.8 37 87 0.8 33.5
01:55 1018 30.06 847 25.01 2.8 37.1 87 0.9 33.7
02:00 1018 30.06 847 25.01 2.7 36.9 87 0.8 33.4
02:05 1018 30.06 847 25.01 2.7 36.8 86 0.5 33
02:10 1018 30.06 847 25.01 2.6 36.7 86 0.5 32.8
02:15 1018 30.06 848 25.04 2.7 36.9 86 0.5 33
02:20 1018 30.06 848 25.04 2.8 37.1 85 0.6 33.1
02:25 1018 30.06 847 25.01 2.9 37.2 86 0.7 33.3
02:30 1018 30.06 847 25.01 3 37.3 85 0.7 33.2
02:35 1018 30.06 847 25.01 3.1 37.5 85 0.8 33.4
02:40 1018 30.06 847 25.01 3.1 37.6 85 0.8 33.4
02:45 1018 30.06 847 25.01 3.1 37.7 85 0.9 33.6
02:50 1018 30.06 847 25.01 3.2 37.8 85 0.9 33.7
02:55 1018 30.06 847 25.01 3.3 38 84 0.9 33.6
03:00 1018 30.06 848 25.04 3.4 38.1 85 1 33.9
03:05 1018 30.06 848 25.04 3.4 38.2 85 1.1 34
03:10 1018 30.06 847 25.01 3.4 38.1 85 1.2 34.2
03:15 1018 30.06 847 25.01 3.4 38.2 86 1.3 34.4
03:20 1018 30.06 847 25.01 3.4 38 86 1.3 34.3
03:25 1018 30.06 847 25.01 3.1 37.7 87 1.2 34.1
03:30 1018 30.06 847 25.01 3.2 37.8 87 1.2 34.1
03:35 1018 30.06 848 25.04 3.2 37.8 87 1.2 34.1
03:40 1018 30.06 848 25.04 3.2 37.8 87 1.3 34.3
03:45 1018 30.06 848 25.04 3.2 37.8 87 1.2 34.2
03:50 1018 30.06 848 25.04 3.2 37.8 85 1 33.8
03:55 1018 30.06 848 25.04 3.1 37.7 85 0.9 33.6
04:00 1019 30.09 848 25.04 3.2 37.7 85 0.9 33.7
04:05 1019 30.09 848 25.04 3.2 37.8 85 1 33.8
04:10 1019 30.09 848 25.04 3.3 37.9 86 1.2 34.1
04:15 1019 30.09 848 25.04 3.2 37.8 86 1.1 33.9
04:20 1019 30.09 848 25.04 3.2 37.7 86 1.1 34
04:25 1019 30.09 848 25.04 3.2 37.8 86 1.2 34.1
04:30 1019 30.09 848 25.04 3.2 37.8 86 1.1 34
04:35 1019 30.09 848 25.04 3.2 37.7 86 1.1 34
04:40 1019 30.09 848 25.04 3.2 37.7 87 1.2 34.2
04:45 1019 30.09 848 25.04 3 37.4 88 1.2 34.2
04:50 1019 30.09 848 25.04 2.9 37.3 88 1.2 34.2
04:55 1019 30.09 848 25.04 2.9 37.3 89 1.3 34.3
05:00 1019 30.09 848 25.04 3 37.4 89 1.3 34.3
05:05 1019 30.09 848 25.04 3 37.4 89 1.4 34.5
05:10 1019 30.09 848 25.04 3 37.5 89 1.4 34.6
05:15 1019 30.09 848 25.04 3 37.4 90 1.4 34.6
05:20 1019 30.09 848 25.04 3 37.3 90 1.4 34.6
05:25 1019 30.09 849 25.07 3 37.5 86 0.9 33.7
05:30 1019 30.09 849 25.07 3.3 37.9 84 0.9 33.6
05:35 1019 30.09 849 25.07 3.4 38.1 83 0.9 33.6
05:40 1019 30.09 849 25.07 3.5 38.2 83 0.8 33.5
05:45 1019 30.09 849 25.07 3.5 38.3 83 1 33.7
05:50 1019 30.09 849 25.07 3.5 38.4 82 0.7 33.3
05:55 1019 30.09 849 25.07 3.5 38.3 82 0.8 33.4
06:00 1020 30.12 849 25.07 3.4 38.1 82 0.7 33.2
06:05 1020 30.12 849 25.07 3.4 38.1 82 0.6 33
06:10 1019 30.09 849 25.07 3.3 38 82 0.6 33.1
06:15 1019 30.09 849 25.07 3.3 37.9 82 0.5 32.9
06:20 1019 30.09 849 25.07 3.2 37.8 81 0.3 32.5
06:25 1019 30.09 849 25.07 3.2 37.7 81 0.3 32.5
06:30 1020 30.12 849 25.07 3.1 37.6 81 0.1 32.2
06:35 1020 30.12 849 25.07 3 37.4 81 0.1 32.2
06:40 1020 30.12 849 25.07 2.9 37.3 80 -0.1 31.8
06:45 1020 30.12 849 25.07 2.9 37.2 80 -0.1 31.8
06:50 1020 30.12 849 25.07 2.9 37.2 80 -0.3 31.5
06:55 1020 30.12 849 25.07 2.9 37.1 79 -0.4 31.4
07:00 1020 30.12 849 25.07 2.9 37.1 80 -0.3 31.4
07:05 1020 30.12 849 25.07 2.8 37.1 78 -0.7 30.8
07:10 1020 30.12 849 25.07 2.9 37.2 78 -0.6 30.9
07:15 1020 30.12 849 25.07 2.8 37.1 82 0 32.1
07:20 1020 30.12 849 25.07 2.6 36.7 83 -0.1 31.8
07:25 1020 30.12 849 25.07 2.5 36.5 80 -0.6 30.9
07:30 1020 30.12 850 25.1 2.7 36.8 78 -0.8 30.5
07:35 1020 30.12 850 25.1 2.9 37.3 78 -0.5 31.1
07:40 1020 30.12 850 25.1 3.2 37.8 80 0.1 32.1
07:45 1021 30.15 850 25.1 4 39.2 75 -0 32
07:50 1021 30.15 850 25.1 4.7 40.5 70 -0.2 31.7
07:55 1021 30.15 850 25.1 5.2 41.4 70 0.3 32.5
08:00 1021 30.15 850 25.1 4.9 40.8 72 0.3 32.6
08:05 1021 30.15 850 25.1 4.7 40.4 71 -0.1 31.8
08:10 1021 30.15 850 25.1 4.5 40.1 72 -0.1 31.8
08:15 1021 30.15 850 25.1 4.3 39.8 72 -0.2 31.6
08:20 1021 30.15 850 25.1 4.4 40 72 -0.1 31.8
08:25 1021 30.15 850 25.1 4.7 40.5 69 -0.4 31.3
08:30 1021 30.15 850 25.1 4.5 40.2 69 -0.6 30.9
08:35 1021 30.15 850 25.1 4.5 40.1 70 -0.5 31.1
08:40 1021 30.15 850 25.1 4.7 40.5 69 -0.4 31.3
08:45 1021 30.15 850 25.1 5 40.9 68 -0.5 31.1
08:50 1021 30.15 850 25.1 5 41 69 -0.2 31.6
08:55 1021 30.15 850 25.1 4.9 40.9 69 -0.2 31.7
09:00 1021 30.15 850 25.1 5.1 41.1 67 -0.6 30.9
09:05 1021 30.15 850 25.1 5.1 41.1 67 -0.5 31.2
09:10 1021 30.15 850 25.1 5.3 41.5 65 -0.8 30.6
09:15 1021 30.15 851 25.13 5.5 42 63 -0.9 30.4
09:20 1021 30.15 851 25.13 5.9 42.6 60 -1.3 29.7
09:25 1021 30.15 851 25.13 6 42.7 61 -1 30.3
09:30 1021 30.15 851 25.13 6 42.8 58 -1.6 29.1
09:35 1021 30.15 851 25.13 6.6 43.8 56 -1.7 29
09:40 1021 30.15 851 25.13 6.5 43.7 57 -1.4 29.6
09:45 1021 30.15 851 25.13 6.6 43.8 57 -1.4 29.5
09:50 1021 30.15 851 25.13 6.6 43.8 54 -1.9 28.5
09:55 1021 30.15 851 25.13 6.5 43.7 53 -2.4 27.7
10:00 1021 30.15 851 25.13 6.2 43.2 56 -1.8 28.8
10:05 1021 30.15 851 25.13 6.7 44 52 -2.6 27.3
10:10 1022 30.18 851 25.13 7.3 45.1 50 -2.5 27.5
10:15 1022 30.18 851 25.13 8.2 46.7 47 -2.3 27.8
10:20 1022 30.18 851 25.13 8.4 47.1 46 -2.5 27.6
10:25 1022 30.18 851 25.13 8.6 47.5 44 -2.9 26.8
10:30 1022 30.18 851 25.13 9 48.2 42 -3.1 26.4
10:35 1022 30.18 851 25.13 9.1 48.5 39 -3.9 24.9
10:40 1022 30.18 851 25.13 9.1 48.4 41 -3.4 25.9
10:45 1022 30.18 851 25.13 8.3 46.9 42 -4 24.8
10:50 1022 30.18 851 25.13 8.4 47.2 40 -4.5 23.9
10:55 1022 30.18 851 25.13 9.5 49.1 35 -5.1 22.7
11:00 1022 30.18 851 25.13 9.2 48.5 38 -4.3 24.3
11:05 1022 30.18 851 25.13 8.5 47.4 42 -3.6 25.5
11:10 1022 30.18 851 25.13 7.9 46.3 42 -4.3 24.3
11:15 1022 30.18 851 25.13 8.7 47.6 37 -5.1 22.9
11:20 1022 30.18 851 25.13 9.1 48.4 37 -4.8 23.4
11:25 1022 30.18 851 25.13 9.2 48.6 35 -5.3 22.5
11:30 1022 30.18 851 25.13 9.1 48.3 37 -5 23
11:35 1022 30.18 851 25.13 9.7 49.5 33 -5.8 21.5
11:40 1022 30.18 851 25.13 9.8 49.6 34 -5.4 22.3
11:45 1022 30.18 851 25.13 9.5 49.1 33 -5.8 21.6
11:50 1022 30.18 851 25.13 9.6 49.2 33 -5.8 21.5
11:55 1022 30.18 851 25.13 10 49.9 33 -5.7 21.7
12:00 1022 30.18 851 25.13 10.1 50.2 33 -5.5 22.1
12:05 1022 30.18 851 25.13 9.4 48.8 33 -6.1 21
12:10 1022 30.18 851 25.13 9.6 49.3 33 -5.7 21.7
12:15 1022 30.18 851 25.13 9.9 49.8 32 -5.9 21.3
12:20 1022 30.18 851 25.13 10.1 50.1 32 -5.7 21.8
12:25 1022 30.18 851 25.13 10.2 50.3 32 -5.8 21.6
12:30 1022 30.18 851 25.13 10.4 50.7 32 -5.6 22
12:35 1022 30.18 851 25.13 11.2 52.1 30 -5.6 21.8
12:40 1022 30.18 851 25.13 11 51.9 29 -6.2 20.8
12:45 1022 30.18 851 25.13 10.5 51 30 -6.2 20.9
12:50 1022 30.18 851 25.13 10.5 50.8 30 -6.3 20.7
12:55 1022 30.18 851 25.13 10.8 51.4 30 -6 21.3
13:00 1022 30.18 851 25.13 10.4 50.7 31 -5.9 21.5
13:05 1022 30.18 851 25.13 10.2 50.3 30 -6.6 20.2
13:10 1022 30.18 851 25.13 10.7 51.2 30 -6.2 20.8
13:15 1022 30.18 851 25.13 11 51.8 29 -6.6 20.2
13:20 1022 30.18 851 25.13 11.2 52.2 29 -6.3 20.6
13:25 1022 30.18 851 25.13 11.7 53 29 -5.9 21.5
13:30 1022 30.18 851 25.13 11.7 53 29 -6 21.3
13:35 1022 30.18 851 25.13 11.3 52.3 30 -5.8 21.6
13:40 1022 30.18 851 25.13 11.1 52 29 -6.1 21.1
13:45 1022 30.18 851 25.13 11.3 52.4 30 -5.4 22.3
13:50 1022 30.18 851 25.13 11.1 52 30 -5.9 21.4
13:55 1022 30.18 851 25.13 11.6 53 31 -5 23
14:00 1022 30.18 851 25.13 12.3 54.1 28 -5.8 21.6
14:05 1022 30.18 851 25.13 12.5 54.6 29 -5.1 22.8
14:10 1022 30.18 851 25.13 12.8 55.1 27 -5.6 21.9
14:15 1022 30.18 851 25.13 12.8 55 28 -5.2 22.6
14:20 1022 30.18 851 25.13 13.2 55.7 26 -5.9 21.4
14:25 1022 30.18 851 25.13 12.5 54.6 28 -5.6 21.9
14:30 1022 30.18 851 25.13 13 55.4 27 -5.5 22.1
14:35 1022 30.18 851 25.13 12.8 55 27 -5.7 21.8
14:40 1022 30.18 851 25.13 12.5 54.5 28 -5.5 22.1
14:45 1022 30.18 851 25.13 12.4 54.4 27 -5.9 21.4
14:50 1022 30.18 851 25.13 12.1 53.7 30 -5.1 22.8
14:55 1022 30.18 851 25.13 12.3 54.2 27 -6 21.3
15:00 1022 30.18 851 25.13 12.9 55.2 26 -6 21.3
15:05 1022 30.18 851 25.13 13.4 56.1 27 -5.3 22.5
15:10 1022 30.18 851 25.13 13.5 56.3 26 -5.7 21.8
15:15 1022 30.18 851 25.13 13.6 56.5 24 -6.3 20.7
15:20 1022 30.18 851 25.13 13.2 55.8 25 -6.6 20.2
15:25 1022 30.18 851 25.13 13.5 56.3 23 -7.2 19
15:30 1022 30.18 851 25.13 14 57.3 20 -8.2 17.2
15:35 1021 30.15 851 25.13 14.1 57.3 20 -8.3 17.1
15:40 1021 30.15 851 25.13 13.7 56.7 21 -8.4 16.9
15:45 1021 30.15 851 25.13 13.3 56 21 -8.4 16.9
15:50 1021 30.15 851 25.13 13.3 55.9 22 -8 17.5
15:55 1021 30.15 851 25.13 13.4 56 23 -7.6 18.4
16:00 1021 30.15 851 25.13 13.5 56.4 22 -7.9 17.8
16:05 1021 30.15 851 25.13 13.9 57 21 -8.1 17.3
16:10 1021 30.15 851 25.13 13.9 57 22 -7.5 18.5
16:15 1021 30.15 850 25.1 13.4 56.2 22 -8 17.7
16:20 1021 30.15 850 25.1 13.6 56.5 20 -8.7 16.3
16:25 1021 30.15 850 25.1 13.6 56.5 21 -8.4 16.9
16:30 1021 30.15 851 25.13 13.9 57 20 -8.7 16.4
16:35 1021 30.15 851 25.13 13.6 56.5 19 -9.3 15.3
16:40 1021 30.15 851 25.13 13.8 56.8 20 -9 15.9
16:45 1021 30.15 851 25.13 13.6 56.4 20 -9.1 15.6
16:50 1021 30.15 851 25.13 13.7 56.7 19 -9.8 14.4
16:55 1021 30.15 851 25.13 13.7 56.7 19 -9.5 14.8
17:00 1021 30.15 851 25.13 13.1 55.6 20 -9.4 15.1
17:05 1021 30.15 851 25.13 13.6 56.5 21 -8.6 16.5
17:10 1021 30.15 851 25.13 13 55.3 20 -9.3 15.2
17:15 1021 30.15 851 25.13 13.5 56.3 18 -10.3 13.4
17:20 1021 30.15 851 25.13 13.8 56.8 17 -11 12.1
17:25 1021 30.15 851 25.13 13.6 56.4 17 -10.9 12.3
17:30 1021 30.15 851 25.13 13.4 56.2 18 -10.7 12.7
17:35 1021 30.15 851 25.13 13.7 56.7 17 -11.1 12
17:40 1021 30.15 850 25.1 13.6 56.5 18 -10.4 13.2
17:45 1021 30.15 850 25.1 13.2 55.8 18 -10.6 13
17:50 1021 30.15 851 25.13 12.7 54.9 18 -10.8 12.5
17:55 1021 30.15 850 25.1 13.3 55.9 18 -10.7 12.7
18:00 1021 30.15 850 25.1 13.5 56.2 17 -10.9 12.3
18:05 1021 30.15 850 25.1 13.4 56.1 17 -11.3 11.6
18:10 1021 30.15 850 25.1 13.9 57 16 -11.9 10.5
18:15 1021 30.15 850 25.1 13.4 56.2 17 -11.4 11.6
18:20 1021 30.15 850 25.1 13.4 56 16 -12.2 10
18:25 1021 30.15 850 25.1 13.6 56.6 15 -12.8 9
18:30 1021 30.15 850 25.1 13.3 56 15 -12.7 9.1
18:35 1021 30.15 850 25.1 12.9 55.2 17 -11.4 11.5
18:40 1021 30.15 850 25.1 12.7 54.8 17 -11.9 10.5
18:45 1021 30.15 851 25.13 12.7 54.9 18 -11.2 11.8
18:50 1021 30.15 851 25.13 12.6 54.7 18 -11.2 11.9
18:55 1021 30.15 850 25.1 12.5 54.4 18 -11.4 11.5
19:00 1021 30.15 851 25.13 12.6 54.6 17 -11.6 11.1
19:05 1021 30.15 851 25.13 12.4 54.3 18 -11.6 11.2
19:10 1021 30.15 851 25.13 12 53.6 18 -11.7 10.9
19:15 1021 30.15 851 25.13 11.9 53.5 19 -11 12.1
19:20 1021 30.15 851 25.13 11.8 53.2 18 -11.5 11.3
19:25 1021 30.15 851 25.13 11.7 53 19 -11.5 11.2
19:30 1021 30.15 851 25.13 11.7 53 19 -11.1 11.9
19:35 1021 30.15 851 25.13 11.7 53.1 19 -11.3 11.6
19:40 1021 30.15 850 25.1 11.7 53 19 -10.9 12.4
19:45 1021 30.15 850 25.1 11.6 52.9 20 -10.5 13.2
19:50 1021 30.15 850 25.1 11.5 52.6 20 -10.7 12.7
19:55 1021 30.15 851 25.13 11.3 52.3 20 -10.7 12.7
20:00 1021 30.15 851 25.13 11.1 52 21 -10.6 12.9
20:05 1021 30.15 851 25.13 10.8 51.4 22 -10 13.9
20:10 1021 30.15 850 25.1 10.4 50.8 23 -9.7 14.6
20:15 1021 30.15 850 25.1 10.2 50.3 25 -9.2 15.4
20:20 1021 30.15 850 25.1 9.9 49.8 26 -8.9 15.9
20:25 1021 30.15 850 25.1 9.6 49.3 27 -8.6 16.5
20:30 1021 30.15 850 25.1 9.3 48.8 30 -7.3 18.9
20:35 1021 30.15 850 25.1 8.8 47.9 35 -5.6 21.9
20:40 1021 30.15 851 25.13 8.2 46.7 38 -5.4 22.2
20:45 1021 30.15 851 25.13 7.9 46.2 39 -5.2 22.7
20:50 1021 30.15 851 25.13 7.5 45.5 39 -5.4 22.3
20:55 1021 30.15 851 25.13 7.3 45.1 41 -5.2 22.6
21:00 1022 30.18 851 25.13 6.9 44.5 43 -4.9 23.2
21:05 1022 30.18 851 25.13 6.4 43.5 46 -4.4 24.1
21:10 1022 30.18 851 25.13 5.9 42.7 45 -5.1 22.8
21:15 1022 30.18 851 25.13 6.1 42.9 41 -6.2 20.8
21:20 1022 30.18 851 25.13 6.3 43.4 43 -5.2 22.6
21:25 1022 30.18 851 25.13 6 42.7 46 -4.9 23.1
21:30 1022 30.18 851 25.13 5.6 42.1 46 -5.1 22.7
21:35 1022 30.18 851 25.13 5.5 41.9 47 -5 23.1
21:40 1022 30.18 851 25.13 5.3 41.6 48 -4.8 23.3
21:45 1022 30.18 851 25.13 5.2 41.3 48 -5 23.1
21:50 1022 30.18 851 25.13 5.1 41.1 49 -4.8 23.4
21:55 1022 30.18 851 25.13 4.7 40.4 50 -4.9 23.2
22:00 1022 30.18 851 25.13 4.8 40.7 46 -6 21.3
22:05 1022 30.18 851 25.13 5 41.1 46 -5.6 22
22:10 1022 30.18 851 25.13 5 41 46 -5.8 21.6
22:15 1022 30.18 851 25.13 5 41.1 44 -6.3 20.7
22:20 1022 30.18 851 25.13 5.2 41.3 44 -6.1 21
22:25 1022 30.18 851 25.13 5.2 41.4 44 -6.1 21
22:30 1022 30.18 851 25.13 5.2 41.3 43 -6.3 20.7
22:35 1022 30.18 851 25.13 5.1 41.2 44 -6 21.2
22:40 1022 30.18 851 25.13 4.7 40.5 45 -6.1 21
22:45 1022 30.18 851 25.13 4.7 40.5 45 -6.3 20.6
22:50 1022 30.18 851 25.13 4.8 40.6 44 -6.5 20.3
22:55 1022 30.18 851 25.13 4.8 40.6 43 -6.9 19.6
23:00 1022 30.18 851 25.13 4.8 40.6 44 -6.5 20.2
23:05 1022 30.18 851 25.13 4.6 40.4 44 -6.7 19.9
23:10 1021 30.15 851 25.13 4.6 40.2 45 -6.4 20.5
23:15 1021 30.15 851 25.13 4.5 40 45 -6.5 20.2
23:20 1021 30.15 851 25.13 4.4 39.9 45 -6.5 20.4
23:25 1021 30.15 851 25.13 4.4 39.9 45 -6.5 20.4
23:30 1021 30.15 851 25.13 4.3 39.7 44 -6.8 19.8
23:35 1022 30.18 851 25.13 4.4 40 43 -7.1 19.3
23:40 1022 30.18 851 25.13 4.5 40.1 42 -7.4 18.6
23:45 1022 30.18 851 25.13 4.7 40.4 41 -7.6 18.3
23:50 1022 30.18 851 25.13 4.8 40.7 42 -7 19.3
23:55 1022 30.18 851 25.13 5.1 41.2 37 -8.4 16.9
24:00 1022 30.18 851 25.13 5.5 41.9 38 -7.8 18